Time;durP1;ratioP1;P1;durP2;ratioP2;P2;SDS_P1;SDS_P2;PMS_P1;PMS_P2;Temp;Humidity;BMP_temperature;BMP_pressure;BME280_temperature;BME280_humidity;BME280_pressure;Samples;Min_cycle;Max_cycle;Signal;HPM_P1;HPM_P2
2022/06/23 00:01:30;;;;;;;;;;;;;;;;;;;;;
2022/06/23 00:04:48;;;;;;;2.13;1.00;;;19.80;1.00;;;;;;6187769;23;20500;-92
2022/06/23 00:08:15;;;;;;;3.17;0.88;;;19.30;1.00;;;;;;6115878;23;20020;-91
2022/06/23 00:11:24;;;;;;;1.80;1.38;;;19.40;1.00;;;;;;6169279;23;20017;-92
2022/06/23 00:14:42;;;;;;;3.58;1.90;;;19.10;1.00;;;;;;6169769;23;20094;-92
2022/06/23 00:18:09;;;;;;;1.35;0.85;;;18.80;1.00;;;;;;6191413;23;20028;-90
2022/06/23 00:21:34;;;;;;;3.53;1.38;;;18.90;1.00;;;;;;6166904;23;20071;-91
2022/06/23 00:24:40;;;;;;;3.97;1.93;;;19.00;1.00;;;;;;6217451;23;20495;-91
2022/06/23 00:27:33;;;;;;;1.38;1.00;;;19.20;1.00;;;;;;6191433;23;20064;-91
2022/06/23 00:30:47;;;;;;;2.75;0.75;;;18.90;1.00;;;;;;6107239;23;20093;-91
2022/06/23 00:33:51;;;;;;;1.98;1.02;;;19.20;1.00;;;;;;6099267;23;20029;-90
2022/06/23 00:37:15;;;;;;;1.98;1.10;;;19.20;1.00;;;;;;6098793;23;20038;-93
2022/06/23 00:41:14;;;;;;;;;;;;;;;;;;;;;
2022/06/23 00:44:45;;;;;;;1.38;1.10;;;19.20;1.00;;;;;;5986350;23;20398;-93
2022/06/23 00:48:34;;;;;;;1.27;0.80;;;19.20;1.00;;;;;;6062890;23;20026;-91
2022/06/23 01:03:57;;;;;;;1.60;1.10;;;18.90;1.00;;;;;;6247150;22;20117;-91
2022/06/23 01:07:39;;;;;;;1.80;1.03;;;18.90;1.00;;;;;;6236547;23;20020;-91
2022/06/23 01:10:50;;;;;;;2.22;1.50;;;18.80;1.00;;;;;;6203162;23;20019;-92
2022/06/23 01:14:06;;;;;;;3.33;1.48;;;18.50;1.00;;;;;;6245132;22;20020;-90
2022/06/23 01:17:16;;;;;;;4.20;1.88;;;18.30;1.00;;;;;;6239028;23;20020;-92
2022/06/23 01:29:44;;;;;;;1.17;0.80;;;18.60;1.00;;;;;;6245137;22;20352;-91
2022/06/23 01:33:31;;;;;;;1.23;1.00;;;18.70;1.00;;;;;;6184601;23;20143;-91
2022/06/23 01:45:44;;;;;;;;;;;;;;;;;;;;;
2022/06/23 01:52:59;;;;;;;;;;;;;;;;;;;;;
2022/06/23 01:57:01;;;;;;;1.63;1.10;;;18.50;1.00;;;;;;6159200;23;20021;-91
2022/06/23 02:01:00;;;;;;;3.78;1.20;;;18.50;1.00;;;;;;6182089;23;20021;-91
2022/06/23 02:04:36;;;;;;;3.65;1.85;;;18.50;1.00;;;;;;6095021;23;20128;-91
2022/06/23 02:07:49;;;;;;;;;;;18.40;1.00;;;;;;6079077;23;20033;-91
2022/06/23 02:10:47;;;;;;;2.38;1.75;;;18.40;1.00;;;;;;6081434;23;19940;-91
2022/06/23 02:18:18;;;;;;;2.92;0.73;;;18.10;1.00;;;;;;6183657;23;20096;-92
2022/06/23 02:21:49;;;;;;;;;;;;;;;;;;;;;
2022/06/23 02:30:37;;;;;;;2.85;1.17;;;18.20;1.00;;;;;;6184371;23;20028;-92
2022/06/23 02:34:39;;;;;;;;;;;;;;;;;;;;;
2022/06/23 02:38:08;;;;;;;2.97;1.42;;;18.00;1.00;;;;;;6155844;23;20439;-92
2022/06/23 02:41:35;;;;;;;6.78;3.20;;;17.90;1.00;;;;;;6111519;23;20033;-91
2022/06/23 02:53:50;;;;;;;9.02;2.35;;;18.20;1.00;;;;;;6233966;22;20028;-91
2022/06/23 03:02:01;;;;;;;3.83;2.60;;;17.90;1.00;;;;;;6124081;23;20080;-91
2022/06/23 03:05:25;;;;;;;9.18;2.58;;;18.10;1.00;;;;;;6124565;23;20033;-90
2022/06/23 03:08:43;;;;;;;1.77;1.30;;;17.90;1.00;;;;;;6126627;23;20029;-92
2022/06/23 03:12:32;;;;;;;2.72;1.23;;;18.00;1.00;;;;;;6199792;23;20012;-92
2022/06/23 03:16:35;;;;;;;2.15;1.15;;;18.10;1.00;;;;;;6229084;23;20391;-91
2022/06/23 03:24:51;;;;;;;6.63;1.90;;;18.10;1.00;;;;;;6248262;23;20018;-91
2022/06/23 03:29:04;;;;;;;2.60;1.67;;;18.00;1.00;;;;;;6220487;23;20026;-91
2022/06/23 03:32:50;;;;;;;4.07;1.60;;;18.00;1.00;;;;;;6115265;23;20100;-93
2022/06/23 03:36:57;;;;;;;2.25;1.60;;;18.00;1.00;;;;;;6146572;23;20025;-90
2022/06/23 03:49:13;;;;;;;2.13;1.23;;;18.00;1.00;;;;;;6115871;23;20021;-91
2022/06/23 03:53:21;;;;;;;;;;;;;;;;;;;;;
2022/06/23 03:57:15;;;;;;;3.95;1.58;;;17.60;1.00;;;;;;6152480;23;20028;-92
2022/06/23 04:01:12;;;;;;;3.53;2.17;;;17.50;1.00;;;;;;6167816;23;20024;-91
2022/06/23 04:05:29;;;;;;;2.83;1.67;;;17.70;1.00;;;;;;5908595;23;20023;-90
2022/06/23 04:09:13;;;;;;;3.42;1.85;;;17.80;1.00;;;;;;6068512;23;20046;-91
2022/06/23 04:13:16;;;;;;;;;;;;;;;;;;;;;
2022/06/23 04:17:04;;;;;;;7.80;2.13;;;17.60;1.00;;;;;;6005917;23;20422;-92
2022/06/23 04:20:46;;;;;;;3.65;1.85;;;17.50;1.00;;;;;;5987211;23;20023;-91
2022/06/23 05:04:42;;;;;;;2.63;1.50;;;17.40;1.00;;;;;;6005673;23;20023;-92
2022/06/23 05:08:28;;;;;;;;;;;;;;;;;;;;;
2022/06/23 05:12:19;;;;;;;;;;;;;;;;;;;;;
2022/06/23 05:15:40;;;;;;;10.68;3.25;;;17.40;1.00;;;;;;6053222;23;20161;-92
2022/06/23 05:24:00;;;;;;;;;;;;;;;;;;;;;
2022/06/23 05:39:59;;;;;;;7.97;3.70;;;17.40;1.00;;;;;;5953794;24;19906;-92
2022/06/23 22:15:26;;;;;;;;;;;;;;;;;;;;;
